createdAt,value
2022-11-29T00:01:16.984Z,99.17
2022-11-29T00:03:43.691Z,100.00
2022-11-29T00:06:14.778Z,98.68
2022-11-29T00:08:42.305Z,99.66
2022-11-29T00:11:35.075Z,99.96
2022-11-29T00:14:01.884Z,100.00
2022-11-29T00:16:28.920Z,100.00
2022-11-29T00:18:55.643Z,99.82
2022-11-29T00:21:22.162Z,100.00
2022-11-29T00:23:48.646Z,100.00
2022-11-29T00:26:15.210Z,100.00
2022-11-29T00:28:41.816Z,100.00
2022-11-29T00:31:25.428Z,100.00
2022-11-29T00:33:52.919Z,100.00
2022-11-29T00:36:19.912Z,100.00
2022-11-29T00:38:46.735Z,100.00
2022-11-29T00:41:13.280Z,100.00
2022-11-29T00:43:40.606Z,100.00
2022-11-29T00:46:08.309Z,100.00
2022-11-29T00:48:35.690Z,100.00
2022-11-29T00:51:03.913Z,100.00
2022-11-29T00:53:30.433Z,100.00
2022-11-29T00:55:57.218Z,100.00
2022-11-29T00:58:23.812Z,100.00
2022-11-29T01:00:50.380Z,100.00
2022-11-29T01:03:17.474Z,100.00
2022-11-29T01:05:44.678Z,100.00
2022-11-29T01:08:12.057Z,100.00
2022-11-29T01:10:38.717Z,100.00
2022-11-29T01:13:05.834Z,100.00
2022-11-29T01:15:32.559Z,100.00
2022-11-29T01:17:59.366Z,100.00
2022-11-29T01:20:26.016Z,100.00
2022-11-29T01:22:52.566Z,100.00
2022-11-29T01:25:19.512Z,100.00
2022-11-29T01:27:46.674Z,100.00
2022-11-29T01:30:13.366Z,100.00
2022-11-29T01:32:39.881Z,100.00
2022-11-29T01:35:07.215Z,100.00
2022-11-29T01:37:33.909Z,100.00
2022-11-29T01:40:00.459Z,100.00
2022-11-29T01:42:27.128Z,100.00
2022-11-29T01:45:05.246Z,100.00
2022-11-29T01:47:32.539Z,100.00
2022-11-29T01:49:59.885Z,100.00
2022-11-29T01:52:29.951Z,100.00
2022-11-29T01:55:00.609Z,100.00
2022-11-29T01:57:27.470Z,100.00
2022-11-29T02:00:02.396Z,100.00
2022-11-29T02:02:34.417Z,100.00
2022-11-29T02:05:02.577Z,100.00
2022-11-29T02:07:29.362Z,100.00
2022-11-29T02:09:55.931Z,100.00
2022-11-29T02:12:31.304Z,100.00
2022-11-29T02:15:07.918Z,100.00
2022-11-29T02:18:04.274Z,100.00
2022-11-29T02:21:08.104Z,100.00
2022-11-29T02:24:12.366Z,100.00
2022-11-29T02:32:35.816Z,100.00
2022-11-29T02:35:24.040Z,100.00
2022-11-29T02:38:09.404Z,100.00
2022-11-29T02:41:17.564Z,100.00
2022-11-29T02:44:03.059Z,100.00
2022-11-29T02:46:52.477Z,100.00
2022-11-29T02:49:38.220Z,99.94
2022-11-29T02:52:17.237Z,100.00
2022-11-29T02:54:47.336Z,100.00
2022-11-29T02:57:40.329Z,100.00
2022-11-29T03:00:20.124Z,99.29
2022-11-29T03:03:04.138Z,98.76
2022-11-29T03:06:09.343Z,97.76
2022-11-29T03:09:03.937Z,96.46
2022-11-29T03:11:48.799Z,96.53
2022-11-29T03:14:21.069Z,95.99
2022-11-29T03:17:17.262Z,95.25
2022-11-29T03:19:46.780Z,94.52
2022-11-29T03:22:26.506Z,93.46
2022-11-29T03:25:06.337Z,92.85
2022-11-29T03:27:43.291Z,92.70
2022-11-29T03:30:13.860Z,91.76
2022-11-29T03:32:47.971Z,90.95
2022-11-29T03:36:15.934Z,90.29
2022-11-29T03:38:47.132Z,89.56
2022-11-29T03:41:19.229Z,89.79
2022-11-29T03:44:04.155Z,89.76
2022-11-29T03:46:38.189Z,89.64
2022-11-29T03:49:16.492Z,90.28
2022-11-29T03:52:20.816Z,90.68
2022-11-29T03:55:05.989Z,91.26
2022-11-29T03:57:57.420Z,92.25
2022-11-29T04:00:24.682Z,92.73
2022-11-29T04:03:24.843Z,92.81
2022-11-29T04:06:33.628Z,92.25
2022-11-29T04:09:30.105Z,89.83
2022-11-29T04:12:15.129Z,89.02
2022-11-29T04:15:06.438Z,88.91
2022-11-29T04:18:08.478Z,86.62
2022-11-29T04:21:00.625Z,87.52
2022-11-29T04:23:51.713Z,87.91
2022-11-29T04:26:30.866Z,88.46
2022-11-29T04:29:00.242Z,89.39
2022-11-29T04:31:32.619Z,89.31
2022-11-29T04:33:59.155Z,89.41
2022-11-29T04:36:38.809Z,89.27
2022-11-29T04:39:29.077Z,89.71
2022-11-29T04:42:20.478Z,90.07
2022-11-29T04:45:31.341Z,90.55
2022-11-29T04:48:07.093Z,90.44
2022-11-29T04:50:51.826Z,90.11
2022-11-29T04:53:33.629Z,90.53
2022-11-29T04:56:10.617Z,90.60
2022-11-29T04:59:02.105Z,91.16
2022-11-29T05:01:38.732Z,90.62
2022-11-29T05:04:20.093Z,90.72
2022-11-29T05:07:11.763Z,91.28
2022-11-29T05:10:14.253Z,91.40
2022-11-29T05:13:16.333Z,90.99
2022-11-29T05:15:45.956Z,91.09
2022-11-29T05:18:18.472Z,91.60
2022-11-29T05:21:11.118Z,90.43
2022-11-29T05:24:05.869Z,90.73
2022-11-29T05:27:08.225Z,90.60
2022-11-29T05:29:55.551Z,89.70
2022-11-29T05:32:57.301Z,88.82
2022-11-29T05:35:45.223Z,88.05
2022-11-29T05:38:38.060Z,88.06
2022-11-29T05:41:21.098Z,87.56
2022-11-29T05:44:09.441Z,87.20
2022-11-29T05:46:56.814Z,87.10
2022-11-29T05:49:32.224Z,87.54
2022-11-29T05:52:20.545Z,88.38
2022-11-29T05:54:53.162Z,88.42
2022-11-29T05:57:47.550Z,88.85
2022-11-29T06:00:16.848Z,88.41
2022-11-29T06:02:56.156Z,89.88
2022-11-29T06:05:47.590Z,89.09
2022-11-29T06:08:44.651Z,89.50
2022-11-29T06:11:22.046Z,88.76
2022-11-29T06:14:07.780Z,88.71
2022-11-29T06:16:53.127Z,89.93
2022-11-29T06:19:44.549Z,89.84
2022-11-29T06:22:35.710Z,89.80
2022-11-29T06:25:39.291Z,89.39
2022-11-29T06:28:30.687Z,88.96
2022-11-29T06:31:18.737Z,88.83
2022-11-29T06:33:51.084Z,88.43
2022-11-29T06:36:20.083Z,88.61
2022-11-29T06:38:47.174Z,88.25
2022-11-29T06:41:18.744Z,88.23
2022-11-29T06:43:46.291Z,88.76
2022-11-29T06:46:29.299Z,88.67
2022-11-29T06:49:31.183Z,88.87
2022-11-29T06:52:15.380Z,89.44
2022-11-29T06:55:01.208Z,89.45
2022-11-29T06:57:46.142Z,89.56
2022-11-29T07:00:38.783Z,89.84
2022-11-29T07:03:26.990Z,89.96
2022-11-29T07:05:53.866Z,90.08
2022-11-29T07:08:23.265Z,89.66
2022-11-29T07:10:54.062Z,90.53
2022-11-29T07:13:21.668Z,89.77
2022-11-29T07:16:14.226Z,90.58
2022-11-29T07:18:47.524Z,90.47
2022-11-29T07:21:30.800Z,91.26
2022-11-29T07:24:07.514Z,91.34
2022-11-29T07:26:59.448Z,91.09
2022-11-29T07:29:32.610Z,90.91
2022-11-29T07:32:08.497Z,90.90
2022-11-29T07:34:50.063Z,90.42
2022-11-29T07:37:36.590Z,90.56
2022-11-29T07:40:14.035Z,90.77
2022-11-29T07:43:08.601Z,90.60
2022-11-29T07:45:39.135Z,90.59
2022-11-29T07:48:07.041Z,90.24
2022-11-29T07:50:35.658Z,89.80
2022-11-29T07:53:02.550Z,89.67
2022-11-29T07:55:29.845Z,89.09
2022-11-29T07:57:56.548Z,87.65
2022-11-29T08:00:23.632Z,87.49
2022-11-29T08:02:51.281Z,87.10
2022-11-29T08:05:18.622Z,86.26
2022-11-29T08:07:46.536Z,85.82
2022-11-29T08:10:15.667Z,85.62
2022-11-29T08:12:46.593Z,85.89
2022-11-29T08:15:14.296Z,85.26
2022-11-29T08:17:41.056Z,84.53
2022-11-29T08:20:09.329Z,84.29
2022-11-29T08:22:36.120Z,84.18
2022-11-29T08:25:03.476Z,83.91
2022-11-29T08:27:30.497Z,83.92
2022-11-29T08:29:57.141Z,82.31
2022-11-29T08:32:23.763Z,82.73
2022-11-29T08:34:50.575Z,82.72
2022-11-29T08:37:17.330Z,82.33
2022-11-29T08:39:44.393Z,81.79
2022-11-29T08:42:11.043Z,81.92
2022-11-29T08:44:37.605Z,82.10
2022-11-29T08:47:22.896Z,81.99
2022-11-29T08:50:01.626Z,81.54
2022-11-29T08:52:48.371Z,81.44
2022-11-29T08:55:15.971Z,80.69
2022-11-29T08:57:42.670Z,81.62
2022-11-29T09:00:10.511Z,81.03
2022-11-29T09:02:37.539Z,80.74
2022-11-29T09:05:06.358Z,80.70
2022-11-29T09:07:33.430Z,80.52
2022-11-29T09:10:04.993Z,79.85
2022-11-29T09:12:32.795Z,79.45
2022-11-29T09:14:59.742Z,79.75
2022-11-29T09:17:26.747Z,80.08
2022-11-29T09:19:53.404Z,78.96
2022-11-29T09:22:20.123Z,78.85
2022-11-29T09:24:47.445Z,78.30
2022-11-29T09:27:14.375Z,77.91
2022-11-29T09:29:41.005Z,77.30
2022-11-29T09:32:07.797Z,77.38
2022-11-29T09:34:34.681Z,76.92
2022-11-29T09:37:01.824Z,76.70
2022-11-29T09:39:28.688Z,76.38
2022-11-29T09:42:01.143Z,76.54
2022-11-29T09:44:30.711Z,76.26
2022-11-29T09:47:16.153Z,76.60
2022-11-29T09:50:17.039Z,76.25
2022-11-29T09:52:55.460Z,76.08
2022-11-29T09:56:09.976Z,75.45
2022-11-29T09:58:57.336Z,75.23
2022-11-29T10:01:28.789Z,74.22
2022-11-29T10:04:00.954Z,74.36
2022-11-29T10:06:38.912Z,74.63
2022-11-29T10:09:24.175Z,74.59
2022-11-29T10:11:56.686Z,74.46
2022-11-29T10:14:30.517Z,73.23
2022-11-29T10:17:15.986Z,72.78
2022-11-29T10:19:56.123Z,71.58
2022-11-29T10:22:44.001Z,72.34
2022-11-29T10:25:20.820Z,72.26
2022-11-29T10:27:47.473Z,71.58
2022-11-29T10:30:17.324Z,72.45
2022-11-29T10:32:54.944Z,71.43
2022-11-29T10:35:22.474Z,71.83
2022-11-29T10:38:28.630Z,71.46
2022-11-29T10:40:44.219Z,72.15
2022-11-29T10:43:10.878Z,72.65
2022-11-29T10:45:44.353Z,71.64
2022-11-29T10:48:16.968Z,71.96
2022-11-29T10:50:45.653Z,72.35
2022-11-29T10:53:48.450Z,70.50
2022-11-29T10:56:17.814Z,71.08
2022-11-29T10:59:09.598Z,70.58
2022-11-29T11:01:46.781Z,70.98
2022-11-29T11:04:44.545Z,69.82
2022-11-29T11:07:28.235Z,70.70
2022-11-29T11:09:57.086Z,70.20
2022-11-29T11:12:29.819Z,68.90
2022-11-29T11:15:26.528Z,69.43
2022-11-29T11:18:01.448Z,70.52
2022-11-29T11:20:30.722Z,68.97
2022-11-29T11:23:07.438Z,70.18
2022-11-29T11:25:39.914Z,69.74
2022-11-29T11:28:25.504Z,69.69
2022-11-29T11:31:05.727Z,71.18
2022-11-29T11:33:43.705Z,70.44
2022-11-29T11:36:28.523Z,71.09
2022-11-29T11:39:27.679Z,69.86
2022-11-29T11:42:13.053Z,70.84
2022-11-29T11:44:50.481Z,70.67
2022-11-29T11:47:27.178Z,69.12
2022-11-29T11:50:04.905Z,69.36
2022-11-29T11:52:50.354Z,69.71
2022-11-29T11:55:27.037Z,70.10
2022-11-29T11:58:16.360Z,70.99
2022-11-29T12:01:04.803Z,69.54
2022-11-29T12:03:34.067Z,69.71
2022-11-29T12:06:38.766Z,70.71
2022-11-29T12:09:38.986Z,69.50
2022-11-29T12:12:35.759Z,71.25
2022-11-29T12:15:22.556Z,71.54
2022-11-29T12:18:06.361Z,71.73
2022-11-29T12:20:39.923Z,71.11
2022-11-29T12:23:24.200Z,71.10
2022-11-29T12:25:58.220Z,71.12
2022-11-29T12:28:33.935Z,71.93
2022-11-29T12:31:25.039Z,70.80
2022-11-29T12:33:51.619Z,71.48
2022-11-29T12:36:50.356Z,71.19
2022-11-29T12:39:35.293Z,71.55
2022-11-29T12:42:20.279Z,71.41
2022-11-29T12:44:53.036Z,70.68
2022-11-29T12:47:37.692Z,71.30
2022-11-29T12:50:07.486Z,71.40
2022-11-29T12:52:46.193Z,71.38
2022-11-29T12:55:38.821Z,71.23
2022-11-29T12:58:22.798Z,70.94
2022-11-29T13:01:19.844Z,70.56
2022-11-29T13:04:08.272Z,70.50
2022-11-29T13:06:48.585Z,69.73
2022-11-29T13:09:24.155Z,70.30
2022-11-29T13:12:26.257Z,69.26
2022-11-29T13:15:09.429Z,70.57
2022-11-29T13:18:11.550Z,70.59
2022-11-29T13:20:59.428Z,70.02
2022-11-29T13:23:46.122Z,70.97
2022-11-29T13:26:19.417Z,71.11
2022-11-29T13:28:48.807Z,70.33
2022-11-29T13:31:21.566Z,71.71
2022-11-29T13:34:06.428Z,70.87
2022-11-29T13:42:16.322Z,71.81
2022-11-29T13:44:50.680Z,71.59
2022-11-29T13:47:19.460Z,72.09
2022-11-29T13:49:49.074Z,70.82
2022-11-29T13:52:40.450Z,70.33
2022-11-29T13:55:21.874Z,70.09
2022-11-29T13:58:15.464Z,70.70
2022-11-29T14:00:44.023Z,71.10
2022-11-29T14:03:19.775Z,70.86
2022-11-29T14:05:52.401Z,70.45
2022-11-29T14:08:26.816Z,71.16
2022-11-29T14:10:56.620Z,71.12
2022-11-29T14:13:46.306Z,71.39
2022-11-29T14:16:27.920Z,71.54
2022-11-29T14:19:21.974Z,70.24
2022-11-29T14:22:07.001Z,71.04
2022-11-29T14:24:36.483Z,71.38
2022-11-29T14:27:05.989Z,70.96
2022-11-29T14:29:47.710Z,70.95
2022-11-29T14:32:24.595Z,72.37
2022-11-29T14:35:09.899Z,72.11
2022-11-29T14:38:14.631Z,71.09
2022-11-29T14:40:41.382Z,70.90
2022-11-29T14:43:26.115Z,71.71
2022-11-29T14:46:11.481Z,71.52
2022-11-29T14:48:38.396Z,72.10
2022-11-29T14:51:16.658Z,71.97
2022-11-29T14:53:46.264Z,76.89
2022-11-29T14:56:31.700Z,79.34
2022-11-29T14:59:35.665Z,80.00
2022-11-29T15:02:07.759Z,80.25
2022-11-29T15:04:36.672Z,81.07
2022-11-29T15:07:05.542Z,80.47
2022-11-29T15:09:34.756Z,80.04
2022-11-29T15:12:13.118Z,80.35
2022-11-29T15:14:46.246Z,81.38
2022-11-29T15:17:32.157Z,82.81
2022-11-29T15:20:23.025Z,84.70
2022-11-29T15:23:00.788Z,84.80
2022-11-29T15:25:31.719Z,84.83
2022-11-29T15:27:59.641Z,84.74
2022-11-29T15:30:32.309Z,85.69
2022-11-29T15:33:00.605Z,86.18
2022-11-29T15:35:27.709Z,86.73
2022-11-29T15:37:54.922Z,87.00
2022-11-29T15:40:26.396Z,86.97
2022-11-29T15:43:15.314Z,87.38
2022-11-29T15:45:46.367Z,87.53
2022-11-29T15:48:26.334Z,87.99
2022-11-29T15:51:20.117Z,88.29
2022-11-29T15:54:12.801Z,88.54
2022-11-29T15:56:53.501Z,89.07
2022-11-29T15:59:29.131Z,89.06
2022-11-29T16:02:00.487Z,89.51
2022-11-29T16:04:27.284Z,89.28
2022-11-29T16:06:56.388Z,89.31
2022-11-29T16:09:36.126Z,90.20
2022-11-29T16:12:03.515Z,90.72
2022-11-29T16:14:30.117Z,91.56
2022-11-29T16:17:00.783Z,92.00
2022-11-29T16:19:30.437Z,91.97
2022-11-29T16:21:59.679Z,91.36
2022-11-29T16:24:26.719Z,91.20
2022-11-29T16:26:54.002Z,91.04
2022-11-29T16:29:34.607Z,90.64
2022-11-29T16:32:30.476Z,90.54
2022-11-29T16:35:05.916Z,90.76
2022-11-29T16:37:42.500Z,90.80
2022-11-29T16:40:22.826Z,91.28
2022-11-29T16:43:04.732Z,91.69
2022-11-29T16:45:33.695Z,91.89
2022-11-29T16:48:01.834Z,92.54
2022-11-29T16:50:32.608Z,92.92
2022-11-29T16:53:33.848Z,92.93
2022-11-29T16:56:00.523Z,93.32
2022-11-29T16:58:28.081Z,93.83
2022-11-29T17:00:55.392Z,94.04
2022-11-29T17:03:22.607Z,93.68
2022-11-29T17:05:49.883Z,94.13
2022-11-29T17:08:16.558Z,93.59
2022-11-29T17:10:43.128Z,94.19
2022-11-29T17:13:11.056Z,93.10
2022-11-29T17:15:37.594Z,94.28
2022-11-29T17:18:04.240Z,93.99
2022-11-29T17:20:30.878Z,94.79
2022-11-29T17:22:57.539Z,96.44
2022-11-29T17:25:24.310Z,96.20
2022-11-29T17:27:50.907Z,96.03
2022-11-29T17:30:17.740Z,96.51
2022-11-29T17:32:44.286Z,96.07
2022-11-29T17:35:10.931Z,96.94
2022-11-29T17:37:37.484Z,97.10
2022-11-29T17:40:04.490Z,97.26
2022-11-29T17:42:31.023Z,97.40
2022-11-29T17:44:57.570Z,97.75
2022-11-29T17:47:24.215Z,98.20
2022-11-29T17:49:50.842Z,98.22
2022-11-29T17:52:17.489Z,98.82
2022-11-29T17:54:44.194Z,100.00
2022-11-29T17:57:10.779Z,100.00
2022-11-29T17:59:37.346Z,100.00
2022-11-29T18:02:04.345Z,100.00
2022-11-29T18:04:30.953Z,100.00
2022-11-29T18:06:57.540Z,100.00
2022-11-29T18:09:24.185Z,100.00
2022-11-29T18:11:50.955Z,100.00
2022-11-29T18:14:28.484Z,100.00
2022-11-29T18:16:55.261Z,100.00
2022-11-29T18:19:23.396Z,100.00
2022-11-29T18:21:52.841Z,100.00
2022-11-29T18:24:19.723Z,100.00
2022-11-29T18:26:47.232Z,100.00
2022-11-29T18:29:14.162Z,100.00
2022-11-29T18:31:43.133Z,100.00
2022-11-29T18:34:11.337Z,100.00
2022-11-29T18:36:43.445Z,100.00
2022-11-29T18:39:14.098Z,100.00
2022-11-29T18:41:45.208Z,100.00
2022-11-29T18:44:13.789Z,100.00
2022-11-29T18:46:43.159Z,100.00
2022-11-29T18:49:12.308Z,100.00
2022-11-29T18:51:39.162Z,100.00
2022-11-29T18:54:06.527Z,100.00
2022-11-29T18:56:35.110Z,100.00
2022-11-29T18:59:05.983Z,100.00
2022-11-29T19:01:34.777Z,100.00
2022-11-29T19:04:02.154Z,100.00
2022-11-29T19:06:38.613Z,100.00
2022-11-29T19:09:07.479Z,100.00
2022-11-29T19:11:34.488Z,100.00
2022-11-29T19:14:08.040Z,100.00
2022-11-29T19:16:34.910Z,100.00
2022-11-29T19:19:01.967Z,100.00
2022-11-29T19:21:40.390Z,100.00
2022-11-29T19:24:14.059Z,100.00
2022-11-29T19:26:40.852Z,100.00
2022-11-29T19:29:07.561Z,100.00
2022-11-29T19:31:34.170Z,100.00
2022-11-29T19:34:00.757Z,100.00
2022-11-29T19:36:31.635Z,100.00
2022-11-29T19:39:00.760Z,100.00
2022-11-29T19:41:29.134Z,100.00
2022-11-29T19:43:57.457Z,100.00
2022-11-29T19:46:30.116Z,100.00
2022-11-29T19:48:57.926Z,100.00
2022-11-29T19:51:26.019Z,100.00
2022-11-29T19:53:59.041Z,100.00
2022-11-29T19:56:26.180Z,100.00
2022-11-29T19:58:53.175Z,100.00
2022-11-29T20:01:26.124Z,100.00
2022-11-29T20:03:55.984Z,100.00
2022-11-29T20:06:22.889Z,100.00
2022-11-29T20:08:49.702Z,100.00
2022-11-29T20:11:16.220Z,100.00
2022-11-29T20:13:45.070Z,100.00
2022-11-29T20:16:15.024Z,100.00
2022-11-29T20:18:50.126Z,100.00
2022-11-29T20:21:24.073Z,100.00
2022-11-29T20:24:00.320Z,100.00
2022-11-29T20:26:28.483Z,100.00
2022-11-29T20:28:55.122Z,100.00
2022-11-29T20:31:23.245Z,100.00
2022-11-29T20:33:52.643Z,100.00
2022-11-29T20:36:47.202Z,100.00
2022-11-29T20:39:37.592Z,100.00
2022-11-29T20:42:36.620Z,100.00
2022-11-29T20:45:10.990Z,100.00
2022-11-29T20:47:46.602Z,100.00
2022-11-29T20:50:31.457Z,100.00
2022-11-29T20:53:19.187Z,100.00
2022-11-29T20:55:48.234Z,100.00
2022-11-29T20:58:15.532Z,100.00
2022-11-29T21:00:42.343Z,100.00
2022-11-29T21:03:12.357Z,100.00
2022-11-29T21:05:39.042Z,100.00
2022-11-29T21:08:06.053Z,100.00
2022-11-29T21:10:33.397Z,100.00
2022-11-29T21:13:00.239Z,100.00
2022-11-29T21:15:27.215Z,100.00
2022-11-29T21:17:54.086Z,100.00
2022-11-29T21:20:23.857Z,100.00
2022-11-29T21:22:50.347Z,100.00
2022-11-29T21:25:26.634Z,100.00
2022-11-29T21:27:54.884Z,100.00
2022-11-29T21:30:24.028Z,100.00
2022-11-29T21:32:50.910Z,100.00
2022-11-29T21:35:17.573Z,100.00
2022-11-29T21:37:44.945Z,100.00
2022-11-29T21:40:12.731Z,100.00
2022-11-29T21:42:39.687Z,100.00
2022-11-29T21:45:13.300Z,100.00
2022-11-29T21:47:42.196Z,100.00
2022-11-29T21:50:09.155Z,100.00
2022-11-29T21:52:35.775Z,100.00
2022-11-29T21:55:02.408Z,100.00
2022-11-29T21:57:28.979Z,100.00
2022-11-29T21:59:55.790Z,100.00
2022-11-29T22:02:23.219Z,100.00
2022-11-29T22:04:49.904Z,100.00
2022-11-29T22:07:16.610Z,100.00
2022-11-29T22:09:43.252Z,100.00
2022-11-29T22:12:32.533Z,100.00
2022-11-29T22:14:56.389Z,100.00
2022-11-29T22:17:22.984Z,100.00
2022-11-29T22:19:49.581Z,100.00
2022-11-29T22:22:16.150Z,100.00
2022-11-29T22:24:42.726Z,100.00
2022-11-29T22:27:09.327Z,100.00
2022-11-29T22:29:35.894Z,100.00
2022-11-29T22:32:02.833Z,100.00
2022-11-29T22:34:29.448Z,100.00
2022-11-29T22:36:56.508Z,100.00
2022-11-29T22:39:24.557Z,100.00
2022-11-29T22:41:54.719Z,100.00
2022-11-29T22:44:21.772Z,100.00
2022-11-29T22:46:50.377Z,100.00
2022-11-29T22:49:17.039Z,100.00
2022-11-29T22:51:43.750Z,100.00
2022-11-29T22:54:17.956Z,100.00
2022-11-29T22:56:45.774Z,100.00
2022-11-29T22:59:13.193Z,100.00
2022-11-29T23:01:41.225Z,100.00
2022-11-29T23:04:09.277Z,100.00
2022-11-29T23:06:38.249Z,100.00
2022-11-29T23:09:12.067Z,100.00
2022-11-29T23:11:39.148Z,100.00
2022-11-29T23:14:05.738Z,100.00
2022-11-29T23:16:32.936Z,100.00
2022-11-29T23:19:00.903Z,100.00
2022-11-29T23:21:28.833Z,100.00
2022-11-29T23:23:56.744Z,100.00
2022-11-29T23:26:40.259Z,100.00
2022-11-29T23:29:12.200Z,100.00
2022-11-29T23:31:39.336Z,100.00
2022-11-29T23:34:06.008Z,100.00
2022-11-29T23:36:32.590Z,100.00
2022-11-29T23:38:59.300Z,100.00
2022-11-29T23:41:25.915Z,100.00
2022-11-29T23:43:52.523Z,100.00
2022-11-29T23:46:21.701Z,100.00
2022-11-29T23:48:48.387Z,100.00
2022-11-29T23:51:15.533Z,100.00
2022-11-29T23:53:42.320Z,100.00
2022-11-29T23:56:13.182Z,100.00
2022-11-29T23:58:40.090Z,100.00
